sensor_id;sensor_type;location;lat;lon;timestamp;pressure;altitude;pressure_sealevel;temperature;humidity
16481;BME280;44634;54.110;12.138;2023-02-19T00:01:20;100901.56;;;7.32;100.00
16481;BME280;44634;54.110;12.138;2023-02-19T00:03:49;100909.69;;;7.53;100.00
16481;BME280;44634;54.110;12.138;2023-02-19T00:06:20;100902.97;;;7.25;100.00
16481;BME280;44634;54.110;12.138;2023-02-19T00:08:48;100907.78;;;7.55;100.00
16481;BME280;44634;54.110;12.138;2023-02-19T00:11:19;100908.16;;;7.14;100.00
16481;BME280;44634;54.110;12.138;2023-02-19T00:13:49;100893.53;;;6.86;100.00
16481;BME280;44634;54.110;12.138;2023-02-19T00:16:22;100864.13;;;7.05;100.00
16481;BME280;44634;54.110;12.138;2023-02-19T00:18:51;100876.53;;;7.03;100.00
16481;BME280;44634;54.110;12.138;2023-02-19T00:21:21;100881.75;;;7.15;100.00
16481;BME280;44634;54.110;12.138;2023-02-19T00:23:49;100866.16;;;7.01;100.00
16481;BME280;44634;54.110;12.138;2023-02-19T00:26:17;100877.28;;;7.29;100.00
16481;BME280;44634;54.110;12.138;2023-02-19T00:28:46;100868.94;;;7.70;100.00
16481;BME280;44634;54.110;12.138;2023-02-19T00:31:17;100873.47;;;7.33;100.00
16481;BME280;44634;54.110;12.138;2023-02-19T00:33:46;100877.56;;;7.13;100.00
16481;BME280;44634;54.110;12.138;2023-02-19T00:36:14;100886.56;;;7.22;100.00
16481;BME280;44634;54.110;12.138;2023-02-19T00:38:43;100901.47;;;7.69;100.00
16481;BME280;44634;54.110;12.138;2023-02-19T00:41:12;100920.84;;;7.68;100.00
16481;BME280;44634;54.110;12.138;2023-02-19T00:43:48;100921.25;;;7.51;100.00
16481;BME280;44634;54.110;12.138;2023-02-19T00:46:17;100922.78;;;7.77;100.00
16481;BME280;44634;54.110;12.138;2023-02-19T00:48:46;100907.88;;;7.30;100.00
16481;BME280;44634;54.110;12.138;2023-02-19T00:51:14;100917.88;;;7.49;100.00
16481;BME280;44634;54.110;12.138;2023-02-19T00:53:44;100923.38;;;7.45;100.00
16481;BME280;44634;54.110;12.138;2023-02-19T00:56:12;100921.47;;;7.47;100.00
16481;BME280;44634;54.110;12.138;2023-02-19T00:58:40;100947.00;;;7.34;100.00
16481;BME280;44634;54.110;12.138;2023-02-19T01:01:09;100926.31;;;7.54;100.00
16481;BME280;44634;54.110;12.138;2023-02-19T01:03:38;100931.22;;;7.34;100.00
16481;BME280;44634;54.110;12.138;2023-02-19T01:06:07;100924.38;;;7.91;100.00
16481;BME280;44634;54.110;12.138;2023-02-19T01:08:36;100951.59;;;7.67;100.00
16481;BME280;44634;54.110;12.138;2023-02-19T01:11:06;100961.34;;;7.54;100.00
16481;BME280;44634;54.110;12.138;2023-02-19T01:13:36;100927.03;;;7.56;100.00
16481;BME280;44634;54.110;12.138;2023-02-19T01:16:05;100930.91;;;7.74;100.00
16481;BME280;44634;54.110;12.138;2023-02-19T01:18:34;100935.06;;;7.65;100.00
16481;BME280;44634;54.110;12.138;2023-02-19T01:21:05;100938.81;;;7.74;100.00
16481;BME280;44634;54.110;12.138;2023-02-19T01:23:34;100940.69;;;7.96;100.00
16481;BME280;44634;54.110;12.138;2023-02-19T01:26:05;100954.94;;;7.45;100.00
16481;BME280;44634;54.110;12.138;2023-02-19T01:28:33;100943.47;;;7.23;100.00
16481;BME280;44634;54.110;12.138;2023-02-19T01:31:01;100943.03;;;7.88;100.00
16481;BME280;44634;54.110;12.138;2023-02-19T01:33:30;100949.22;;;7.75;100.00
16481;BME280;44634;54.110;12.138;2023-02-19T01:35:58;100959.03;;;7.73;100.00
16481;BME280;44634;54.110;12.138;2023-02-19T01:38:26;100964.34;;;7.61;100.00
16481;BME280;44634;54.110;12.138;2023-02-19T01:40:55;100945.94;;;7.61;100.00
16481;BME280;44634;54.110;12.138;2023-02-19T01:43:24;100945.69;;;7.64;100.00
16481;BME280;44634;54.110;12.138;2023-02-19T01:45:53;100957.09;;;7.40;100.00
16481;BME280;44634;54.110;12.138;2023-02-19T01:48:24;100942.56;;;7.59;100.00
16481;BME280;44634;54.110;12.138;2023-02-19T01:50:56;100954.53;;;7.63;100.00
16481;BME280;44634;54.110;12.138;2023-02-19T01:53:28;100946.59;;;7.52;100.00
16481;BME280;44634;54.110;12.138;2023-02-19T01:55:59;100926.72;;;7.71;100.00
16481;BME280;44634;54.110;12.138;2023-02-19T01:58:32;100942.41;;;7.49;100.00
16481;BME280;44634;54.110;12.138;2023-02-19T02:01:03;100932.44;;;7.18;100.00
16481;BME280;44634;54.110;12.138;2023-02-19T02:03:33;100933.00;;;7.34;100.00
16481;BME280;44634;54.110;12.138;2023-02-19T02:06:06;100929.66;;;7.56;100.00
16481;BME280;44634;54.110;12.138;2023-02-19T02:08:35;100909.28;;;7.46;100.00
16481;BME280;44634;54.110;12.138;2023-02-19T02:11:21;100921.13;;;7.52;100.00
16481;BME280;44634;54.110;12.138;2023-02-19T02:13:50;100932.22;;;8.15;100.00
16481;BME280;44634;54.110;12.138;2023-02-19T02:16:23;100942.56;;;7.59;100.00
16481;BME280;44634;54.110;12.138;2023-02-19T02:19:01;100937.41;;;7.81;100.00
16481;BME280;44634;54.110;12.138;2023-02-19T02:21:56;100936.69;;;7.90;100.00
16481;BME280;44634;54.110;12.138;2023-02-19T02:27:38;100966.13;;;7.84;100.00
16481;BME280;44634;54.110;12.138;2023-02-19T02:30:30;100946.81;;;7.72;100.00
16481;BME280;44634;54.110;12.138;2023-02-19T02:33:05;100953.25;;;7.21;100.00
16481;BME280;44634;54.110;12.138;2023-02-19T02:35:43;100932.16;;;7.33;100.00
16481;BME280;44634;54.110;12.138;2023-02-19T02:38:13;100906.53;;;7.83;100.00
16481;BME280;44634;54.110;12.138;2023-02-19T02:40:44;100924.16;;;7.35;100.00
16481;BME280;44634;54.110;12.138;2023-02-19T02:43:12;100932.28;;;7.32;100.00
16481;BME280;44634;54.110;12.138;2023-02-19T02:45:41;100932.91;;;7.59;100.00
16481;BME280;44634;54.110;12.138;2023-02-19T02:48:23;100935.78;;;8.02;100.00
16481;BME280;44634;54.110;12.138;2023-02-19T02:50:55;100947.53;;;7.74;100.00
16481;BME280;44634;54.110;12.138;2023-02-19T02:53:26;100966.47;;;7.80;100.00
16481;BME280;44634;54.110;12.138;2023-02-19T02:56:15;100998.75;;;7.34;100.00
16481;BME280;44634;54.110;12.138;2023-02-19T02:58:46;100989.16;;;7.69;100.00
16481;BME280;44634;54.110;12.138;2023-02-19T03:01:19;100957.19;;;7.39;100.00
16481;BME280;44634;54.110;12.138;2023-02-19T03:04:09;100955.63;;;7.60;100.00
16481;BME280;44634;54.110;12.138;2023-02-19T03:06:41;100973.25;;;7.47;100.00
16481;BME280;44634;54.110;12.138;2023-02-19T03:09:12;100968.91;;;7.22;100.00
16481;BME280;44634;54.110;12.138;2023-02-19T03:11:44;100950.28;;;7.73;100.00
16481;BME280;44634;54.110;12.138;2023-02-19T03:14:36;100973.25;;;7.47;100.00
16481;BME280;44634;54.110;12.138;2023-02-19T03:17:28;100971.13;;;7.76;100.00
16481;BME280;44634;54.110;12.138;2023-02-19T03:20:23;100952.94;;;7.73;100.00
16481;BME280;44634;54.110;12.138;2023-02-19T03:22:51;100958.63;;;7.19;100.00
16481;BME280;44634;54.110;12.138;2023-02-19T03:25:24;100964.38;;;7.00;100.00
16481;BME280;44634;54.110;12.138;2023-02-19T03:28:11;100942.63;;;7.46;100.00
16481;BME280;44634;54.110;12.138;2023-02-19T03:30:46;100922.91;;;7.04;100.00
16481;BME280;44634;54.110;12.138;2023-02-19T03:33:20;100916.31;;;7.22;100.00
16481;BME280;44634;54.110;12.138;2023-02-19T03:35:54;100927.22;;;7.05;100.00
16481;BME280;44634;54.110;12.138;2023-02-19T03:38:27;100923.81;;;6.79;100.00
16481;BME280;44634;54.110;12.138;2023-02-19T03:41:02;100907.31;;;7.13;100.00
16481;BME280;44634;54.110;12.138;2023-02-19T03:43:37;100936.19;;;7.74;100.00
16481;BME280;44634;54.110;12.138;2023-02-19T03:46:10;100943.69;;;7.67;100.00
16481;BME280;44634;54.110;12.138;2023-02-19T03:48:47;100946.59;;;7.52;100.00
16481;BME280;44634;54.110;12.138;2023-02-19T03:51:28;100943.97;;;7.28;100.00
16481;BME280;44634;54.110;12.138;2023-02-19T03:54:08;100947.03;;;7.22;100.00
16481;BME280;44634;54.110;12.138;2023-02-19T03:56:43;100938.03;;;7.37;100.00
16481;BME280;44634;54.110;12.138;2023-02-19T03:59:14;100947.00;;;7.34;100.00
16481;BME280;44634;54.110;12.138;2023-02-19T04:01:47;100963.78;;;7.21;100.00
16481;BME280;44634;54.110;12.138;2023-02-19T04:04:22;100956.72;;;7.21;100.00
16481;BME280;44634;54.110;12.138;2023-02-19T04:06:55;100963.19;;;7.41;100.00
16481;BME280;44634;54.110;12.138;2023-02-19T04:09:26;100970.94;;;7.19;100.00
16481;BME280;44634;54.110;12.138;2023-02-19T04:11:55;100955.03;;;7.20;100.00
16481;BME280;44634;54.110;12.138;2023-02-19T04:14:28;100966.50;;;7.19;100.00
16481;BME280;44634;54.110;12.138;2023-02-19T04:17:02;100973.34;;;6.85;100.00
16481;BME280;44634;54.110;12.138;2023-02-19T04:19:35;100918.47;;;6.80;100.00
16481;BME280;44634;54.110;12.138;2023-02-19T04:22:05;100939.91;;;7.24;100.00
16481;BME280;44634;54.110;12.138;2023-02-19T04:24:36;100951.59;;;6.83;100.00
16481;BME280;44634;54.110;12.138;2023-02-19T04:27:05;100941.59;;;7.25;100.00
16481;BME280;44634;54.110;12.138;2023-02-19T04:29:33;100949.31;;;7.39;100.00
16481;BME280;44634;54.110;12.138;2023-02-19T04:32:04;100958.91;;;6.91;100.00
16481;BME280;44634;54.110;12.138;2023-02-19T04:34:33;100943.31;;;7.13;100.00
16481;BME280;44634;54.110;12.138;2023-02-19T04:37:01;100974.19;;;6.47;100.00
16481;BME280;44634;54.110;12.138;2023-02-19T04:39:29;100952.59;;;6.93;100.00
16481;BME280;44634;54.110;12.138;2023-02-19T04:41:56;100953.97;;;7.23;100.00
16481;BME280;44634;54.110;12.138;2023-02-19T04:44:24;100963.28;;;7.15;100.00
16481;BME280;44634;54.110;12.138;2023-02-19T04:46:52;100962.97;;;7.07;100.00
16481;BME280;44634;54.110;12.138;2023-02-19T04:49:20;100989.91;;;7.11;100.00
16481;BME280;44634;54.110;12.138;2023-02-19T04:51:49;100991.44;;;6.39;100.00
16481;BME280;44634;54.110;12.138;2023-02-19T04:54:17;100985.13;;;6.67;100.00
16481;BME280;44634;54.110;12.138;2023-02-19T04:56:45;100982.22;;;7.08;100.00
16481;BME280;44634;54.110;12.138;2023-02-19T04:59:12;100989.44;;;7.17;100.00
16481;BME280;44634;54.110;12.138;2023-02-19T05:01:40;101006.06;;;7.18;100.00
16481;BME280;44634;54.110;12.138;2023-02-19T05:04:08;101014.94;;;6.91;100.00
16481;BME280;44634;54.110;12.138;2023-02-19T05:06:36;101028.84;;;6.68;100.00
16481;BME280;44634;54.110;12.138;2023-02-19T05:09:05;101030.09;;;6.75;100.00
16481;BME280;44634;54.110;12.138;2023-02-19T05:11:33;101015.28;;;6.61;100.00
16481;BME280;44634;54.110;12.138;2023-02-19T05:14:00;101043.63;;;6.31;100.00
16481;BME280;44634;54.110;12.138;2023-02-19T05:16:28;101026.22;;;6.55;100.00
16481;BME280;44634;54.110;12.138;2023-02-19T05:18:56;101042.84;;;6.68;100.00
16481;BME280;44634;54.110;12.138;2023-02-19T05:21:24;101043.84;;;7.04;100.00
16481;BME280;44634;54.110;12.138;2023-02-19T05:23:52;101069.31;;;6.78;100.00
16481;BME280;44634;54.110;12.138;2023-02-19T05:26:22;101061.94;;;6.57;100.00
16481;BME280;44634;54.110;12.138;2023-02-19T05:28:51;101057.00;;;6.40;100.00
16481;BME280;44634;54.110;12.138;2023-02-19T05:31:20;101048.94;;;6.81;100.00
16481;BME280;44634;54.110;12.138;2023-02-19T05:33:48;101077.28;;;7.02;100.00
16481;BME280;44634;54.110;12.138;2023-02-19T05:36:20;101084.53;;;6.60;100.00
16481;BME280;44634;54.110;12.138;2023-02-19T05:38:51;101098.53;;;6.73;100.00
16481;BME280;44634;54.110;12.138;2023-02-19T05:41:22;101095.91;;;6.73;100.00
16481;BME280;44634;54.110;12.138;2023-02-19T05:43:50;101098.66;;;6.32;100.00
16481;BME280;44634;54.110;12.138;2023-02-19T05:46:21;101098.53;;;6.73;100.00
16481;BME280;44634;54.110;12.138;2023-02-19T05:48:50;101092.03;;;6.66;100.00
16481;BME280;44634;54.110;12.138;2023-02-19T05:51:20;101083.09;;;6.81;100.00
16481;BME280;44634;54.110;12.138;2023-02-19T05:53:49;101092.66;;;6.70;100.00
16481;BME280;44634;54.110;12.138;2023-02-19T05:56:26;101105.47;;;7.00;100.00
16481;BME280;44634;54.110;12.138;2023-02-19T05:58:54;101126.28;;;6.77;100.00
16481;BME280;44634;54.110;12.138;2023-02-19T06:01:24;101099.13;;;6.64;100.00
16481;BME280;44634;54.110;12.138;2023-02-19T06:03:53;101104.72;;;6.72;100.00
16481;BME280;44634;54.110;12.138;2023-02-19T06:06:24;101121.94;;;6.51;100.00
16481;BME280;44634;54.110;12.138;2023-02-19T06:08:52;101118.41;;;7.15;100.00
16481;BME280;44634;54.110;12.138;2023-02-19T06:11:23;101136.72;;;7.30;100.00
16481;BME280;44634;54.110;12.138;2023-02-19T06:13:51;101160.06;;;7.09;100.00
16481;BME280;44634;54.110;12.138;2023-02-19T06:16:18;101146.28;;;7.18;100.00
16481;BME280;44634;54.110;12.138;2023-02-19T06:18:47;101153.94;;;6.70;100.00
16481;BME280;44634;54.110;12.138;2023-02-19T06:21:15;101131.16;;;7.09;100.00
16481;BME280;44634;54.110;12.138;2023-02-19T06:23:45;101162.69;;;6.83;100.00
16481;BME280;44634;54.110;12.138;2023-02-19T06:26:15;101163.94;;;6.91;100.00
16481;BME280;44634;54.110;12.138;2023-02-19T06:28:46;101162.59;;;6.98;100.00
16481;BME280;44634;54.110;12.138;2023-02-19T06:31:15;101173.31;;;7.33;100.00
16481;BME280;44634;54.110;12.138;2023-02-19T06:33:44;101189.19;;;6.53;100.00
16481;BME280;44634;54.110;12.138;2023-02-19T06:36:13;101187.59;;;7.03;100.00
16481;BME280;44634;54.110;12.138;2023-02-19T06:38:41;101203.41;;;7.16;100.00
16481;BME280;44634;54.110;12.138;2023-02-19T06:41:10;101229.78;;;6.62;100.00
16481;BME280;44634;54.110;12.138;2023-02-19T06:43:39;101242.88;;;7.29;100.00
16481;BME280;44634;54.110;12.138;2023-02-19T06:46:10;101269.97;;;7.16;100.00
16481;BME280;44634;54.110;12.138;2023-02-19T06:48:39;101262.81;;;7.06;100.00
16481;BME280;44634;54.110;12.138;2023-02-19T06:51:10;101256.41;;;6.70;100.00
16481;BME280;44634;54.110;12.138;2023-02-19T06:53:38;101257.44;;;7.07;100.00
16481;BME280;44634;54.110;12.138;2023-02-19T06:56:19;101291.97;;;7.15;100.00
16481;BME280;44634;54.110;12.138;2023-02-19T06:58:50;101299.66;;;7.19;100.00
16481;BME280;44634;54.110;12.138;2023-02-19T07:01:20;101293.13;;;6.57;100.00
16481;BME280;44634;54.110;12.138;2023-02-19T07:03:48;101282.25;;;6.49;100.00
16481;BME280;44634;54.110;12.138;2023-02-19T07:06:16;101292.59;;;6.52;100.00
16481;BME280;44634;54.110;12.138;2023-02-19T07:08:44;101309.78;;;7.25;100.00
16481;BME280;44634;54.110;12.138;2023-02-19T07:11:12;101324.16;;;6.92;100.00
16481;BME280;44634;54.110;12.138;2023-02-19T07:13:39;101343.13;;;7.24;100.00
16481;BME280;44634;54.110;12.138;2023-02-19T07:16:08;101361.47;;;7.38;100.00
16481;BME280;44634;54.110;12.138;2023-02-19T07:18:39;101369.66;;;7.07;100.00
16481;BME280;44634;54.110;12.138;2023-02-19T07:21:09;101377.69;;;7.18;100.00
16481;BME280;44634;54.110;12.138;2023-02-19T07:23:37;101377.09;;;7.54;100.00
16481;BME280;44634;54.110;12.138;2023-02-19T07:26:08;101387.06;;;7.22;100.00
16481;BME280;44634;54.110;12.138;2023-02-19T07:28:36;101392.00;;;7.14;100.00
16481;BME280;44634;54.110;12.138;2023-02-19T07:31:05;101400.06;;;6.84;100.00
16481;BME280;44634;54.110;12.138;2023-02-19T07:33:32;101384.69;;;7.32;100.00
16481;BME280;44634;54.110;12.138;2023-02-19T07:36:02;101413.63;;;7.71;100.00
16481;BME280;44634;54.110;12.138;2023-02-19T07:38:30;101430.75;;;7.25;100.00
16481;BME280;44634;54.110;12.138;2023-02-19T07:40:59;101417.88;;;7.20;100.00
16481;BME280;44634;54.110;12.138;2023-02-19T07:43:29;101431.34;;;7.42;100.00
16481;BME280;44634;54.110;12.138;2023-02-19T07:45:58;101441.53;;;6.93;100.00
16481;BME280;44634;54.110;12.138;2023-02-19T07:48:25;101449.41;;;7.34;100.00
16481;BME280;44634;54.110;12.138;2023-02-19T07:50:56;101461.91;;;7.85;100.00
16481;BME280;44634;54.110;12.138;2023-02-19T07:53:26;101485.03;;;7.80;100.00
16481;BME280;44634;54.110;12.138;2023-02-19T07:55:58;101489.56;;;7.51;100.00
16481;BME280;44634;54.110;12.138;2023-02-19T07:58:26;101488.78;;;8.02;100.00
16481;BME280;44634;54.110;12.138;2023-02-19T08:00:54;101499.13;;;8.18;100.00
16481;BME280;44634;54.110;12.138;2023-02-19T08:03:22;101500.59;;;7.70;100.00
16481;BME280;44634;54.110;12.138;2023-02-19T08:05:50;101501.56;;;7.69;100.00
16481;BME280;44634;54.110;12.138;2023-02-19T08:08:19;101511.50;;;7.64;100.00
16481;BME280;44634;54.110;12.138;2023-02-19T08:10:48;101519.09;;;8.35;100.00
16481;BME280;44634;54.110;12.138;2023-02-19T08:13:33;101523.94;;;8.67;100.00
16481;BME280;44634;54.110;12.138;2023-02-19T08:16:12;101556.94;;;8.34;100.00
16481;BME280;44634;54.110;12.138;2023-02-19T08:18:49;101574.25;;;8.24;100.00
16481;BME280;44634;54.110;12.138;2023-02-19T08:21:17;101570.22;;;8.45;100.00
16481;BME280;44634;54.110;12.138;2023-02-19T08:23:45;101584.09;;;9.49;100.00
16481;BME280;44634;54.110;12.138;2023-02-19T08:26:17;101596.75;;;9.57;100.00
16481;BME280;44634;54.110;12.138;2023-02-19T08:28:47;101601.13;;;9.32;100.00
16481;BME280;44634;54.110;12.138;2023-02-19T08:31:15;101613.31;;;8.84;100.00
16481;BME280;44634;54.110;12.138;2023-02-19T08:33:43;101627.19;;;10.10;100.00
16481;BME280;44634;54.110;12.138;2023-02-19T08:36:11;101625.53;;;9.10;100.00
16481;BME280;44634;54.110;12.138;2023-02-19T08:38:38;101636.25;;;9.58;100.00
16481;BME280;44634;54.110;12.138;2023-02-19T08:41:07;101641.38;;;9.85;100.00
16481;BME280;44634;54.110;12.138;2023-02-19T08:43:37;101645.50;;;9.76;100.00
16481;BME280;44634;54.110;12.138;2023-02-19T08:46:07;101640.22;;;9.14;100.00
16481;BME280;44634;54.110;12.138;2023-02-19T08:48:36;101635.44;;;9.07;100.00
16481;BME280;44634;54.110;12.138;2023-02-19T08:51:06;101636.19;;;10.07;100.00
16481;BME280;44634;54.110;12.138;2023-02-19T08:53:36;101659.63;;;10.12;100.00
16481;BME280;44634;54.110;12.138;2023-02-19T08:56:04;101655.38;;;9.98;100.00
16481;BME280;44634;54.110;12.138;2023-02-19T08:58:33;101650.56;;;9.67;100.00
16481;BME280;44634;54.110;12.138;2023-02-19T09:01:05;101653.25;;;10.86;100.00
16481;BME280;44634;54.110;12.138;2023-02-19T09:03:34;101651.16;;;10.20;100.00
16481;BME280;44634;54.110;12.138;2023-02-19T09:06:02;101657.03;;;11.28;100.00
16481;BME280;44634;54.110;12.138;2023-02-19T09:08:30;101660.25;;;10.63;100.00
16481;BME280;44634;54.110;12.138;2023-02-19T09:10:59;101670.81;;;10.98;100.00
16481;BME280;44634;54.110;12.138;2023-02-19T09:13:27;101665.72;;;12.62;100.00
16481;BME280;44634;54.110;12.138;2023-02-19T09:15:55;101674.03;;;12.25;100.00
16481;BME280;44634;54.110;12.138;2023-02-19T09:18:24;101684.59;;;11.93;100.00
16481;BME280;44634;54.110;12.138;2023-02-19T09:20:52;101678.81;;;11.21;100.00
16481;BME280;44634;54.110;12.138;2023-02-19T09:23:20;101688.88;;;11.05;100.00
16481;BME280;44634;54.110;12.138;2023-02-19T09:25:47;101687.31;;;11.13;100.00
16481;BME280;44634;54.110;12.138;2023-02-19T09:28:15;101694.38;;;11.81;100.00
16481;BME280;44634;54.110;12.138;2023-02-19T09:30:43;101710.50;;;10.39;100.00
16481;BME280;44634;54.110;12.138;2023-02-19T09:33:11;101706.16;;;10.97;100.00
16481;BME280;44634;54.110;12.138;2023-02-19T09:35:40;101702.81;;;11.86;100.00
16481;BME280;44634;54.110;12.138;2023-02-19T09:38:08;101703.63;;;11.98;100.00
16481;BME280;44634;54.110;12.138;2023-02-19T09:40:37;101710.25;;;10.90;100.00
16481;BME280;44634;54.110;12.138;2023-02-19T09:43:05;101722.06;;;10.62;100.00
16481;BME280;44634;54.110;12.138;2023-02-19T09:45:34;101716.66;;;12.44;100.00
16481;BME280;44634;54.110;12.138;2023-02-19T09:48:04;101714.47;;;12.49;100.00
16481;BME280;44634;54.110;12.138;2023-02-19T09:50:35;101732.75;;;12.32;97.89
16481;BME280;44634;54.110;12.138;2023-02-19T09:53:12;101731.22;;;12.50;98.00
16481;BME280;44634;54.110;12.138;2023-02-19T09:55:42;101736.09;;;12.98;96.89
16481;BME280;44634;54.110;12.138;2023-02-19T09:58:18;101743.34;;;10.96;100.00
16481;BME280;44634;54.110;12.138;2023-02-19T10:00:50;101742.78;;;11.03;100.00
16481;BME280;44634;54.110;12.138;2023-02-19T10:03:22;101749.53;;;10.84;100.00
16481;BME280;44634;54.110;12.138;2023-02-19T10:05:56;101758.34;;;10.24;100.00
16481;BME280;44634;54.110;12.138;2023-02-19T10:08:30;101769.91;;;10.94;100.00
16481;BME280;44634;54.110;12.138;2023-02-19T10:10:59;101760.59;;;12.58;100.00
16481;BME280;44634;54.110;12.138;2023-02-19T10:13:30;101785.16;;;11.15;100.00
16481;BME280;44634;54.110;12.138;2023-02-19T10:16:00;101789.81;;;11.00;100.00
16481;BME280;44634;54.110;12.138;2023-02-19T10:18:35;101769.53;;;12.03;100.00
16481;BME280;44634;54.110;12.138;2023-02-19T10:21:04;101771.44;;;12.12;93.77
16481;BME280;44634;54.110;12.138;2023-02-19T10:23:34;101784.78;;;11.66;93.70
16481;BME280;44634;54.110;12.138;2023-02-19T10:26:01;101781.81;;;10.65;100.00
16481;BME280;44634;54.110;12.138;2023-02-19T10:28:32;101785.31;;;12.04;100.00
16481;BME280;44634;54.110;12.138;2023-02-19T10:31:02;101796.50;;;11.85;97.36
16481;BME280;44634;54.110;12.138;2023-02-19T10:33:31;101799.28;;;11.84;99.41
16481;BME280;44634;54.110;12.138;2023-02-19T10:36:02;101819.63;;;10.78;100.00
16481;BME280;44634;54.110;12.138;2023-02-19T10:38:34;101834.31;;;11.30;92.69
16481;BME280;44634;54.110;12.138;2023-02-19T10:41:05;101827.25;;;12.21;92.33
16481;BME280;44634;54.110;12.138;2023-02-19T10:43:36;101840.38;;;11.43;100.00
16481;BME280;44634;54.110;12.138;2023-02-19T10:46:07;101828.53;;;12.38;92.95
16481;BME280;44634;54.110;12.138;2023-02-19T10:48:46;101832.72;;;13.80;88.62
16481;BME280;44634;54.110;12.138;2023-02-19T10:51:18;101847.34;;;11.79;86.17
16481;BME280;44634;54.110;12.138;2023-02-19T10:53:50;101845.78;;;11.99;92.02
16481;BME280;44634;54.110;12.138;2023-02-19T10:56:22;101850.41;;;12.85;88.25
16481;BME280;44634;54.110;12.138;2023-02-19T10:58:51;101849.91;;;12.91;77.86
16481;BME280;44634;54.110;12.138;2023-02-19T11:01:20;101851.16;;;11.75;90.93
16481;BME280;44634;54.110;12.138;2023-02-19T11:03:49;101861.63;;;11.77;93.69
16481;BME280;44634;54.110;12.138;2023-02-19T11:06:18;101863.38;;;11.54;92.01
16481;BME280;44634;54.110;12.138;2023-02-19T11:08:52;101885.22;;;11.10;89.61
16481;BME280;44634;54.110;12.138;2023-02-19T11:11:26;101880.50;;;12.41;80.15
16481;BME280;44634;54.110;12.138;2023-02-19T11:13:56;101867.91;;;12.88;82.94
16481;BME280;44634;54.110;12.138;2023-02-19T11:16:36;101875.31;;;12.50;84.67
16481;BME280;44634;54.110;12.138;2023-02-19T11:19:05;101875.31;;;12.62;83.79
16481;BME280;44634;54.110;12.138;2023-02-19T11:21:46;101870.25;;;12.47;90.77
16481;BME280;44634;54.110;12.138;2023-02-19T11:24:22;101890.28;;;12.18;80.56
16481;BME280;44634;54.110;12.138;2023-02-19T11:26:51;101882.06;;;13.09;81.76
16481;BME280;44634;54.110;12.138;2023-02-19T11:29:21;101896.91;;;12.46;89.76
16481;BME280;44634;54.110;12.138;2023-02-19T11:31:49;101904.97;;;12.22;87.07
16481;BME280;44634;54.110;12.138;2023-02-19T11:34:35;101898.22;;;13.17;80.55
16481;BME280;44634;54.110;12.138;2023-02-19T11:37:11;101903.63;;;13.59;70.41
16481;BME280;44634;54.110;12.138;2023-02-19T11:39:42;101896.81;;;14.08;69.46
16481;BME280;44634;54.110;12.138;2023-02-19T11:42:26;101904.38;;;12.63;74.74
16481;BME280;44634;54.110;12.138;2023-02-19T11:45:11;101899.06;;;12.74;82.92
16481;BME280;44634;54.110;12.138;2023-02-19T11:47:54;101911.84;;;12.36;77.39
16481;BME280;44634;54.110;12.138;2023-02-19T11:50:32;101907.47;;;11.90;79.91
16481;BME280;44634;54.110;12.138;2023-02-19T11:53:16;101919.78;;;12.80;75.21
16481;BME280;44634;54.110;12.138;2023-02-19T11:55:56;101914.66;;;13.00;76.42
16481;BME280;44634;54.110;12.138;2023-02-19T11:58:42;101908.22;;;12.26;84.87
16481;BME280;44634;54.110;12.138;2023-02-19T12:01:22;101903.00;;;13.02;73.71
16481;BME280;44634;54.110;12.138;2023-02-19T12:04:18;101920.41;;;12.50;76.69
16481;BME280;44634;54.110;12.138;2023-02-19T12:06:55;101925.13;;;11.54;87.35
16481;BME280;44634;54.110;12.138;2023-02-19T12:09:49;101925.03;;;13.25;75.92
16481;BME280;44634;54.110;12.138;2023-02-19T12:12:35;101929.06;;;12.08;85.08
16481;BME280;44634;54.110;12.138;2023-02-19T12:15:18;101924.69;;;13.51;71.76
16481;BME280;44634;54.110;12.138;2023-02-19T12:18:24;101932.59;;;12.75;79.02
16481;BME280;44634;54.110;12.138;2023-02-19T12:21:02;101937.31;;;12.49;75.72
16481;BME280;44634;54.110;12.138;2023-02-19T12:26:37;101938.41;;;13.13;82.84
16481;BME280;44634;54.110;12.138;2023-02-19T12:29:23;101942.63;;;13.37;72.61
16481;BME280;44634;54.110;12.138;2023-02-19T12:32:11;101935.38;;;12.74;74.77
16481;BME280;44634;54.110;12.138;2023-02-19T12:35:22;101955.09;;;12.14;83.84
16481;BME280;44634;54.110;12.138;2023-02-19T12:38:00;101943.97;;;13.32;75.31
16481;BME280;44634;54.110;12.138;2023-02-19T12:40:37;101953.47;;;13.46;78.18
16481;BME280;44634;54.110;12.138;2023-02-19T12:43:12;101965.63;;;12.94;76.79
16481;BME280;44634;54.110;12.138;2023-02-19T12:45:45;101971.00;;;13.37;69.24
16481;BME280;44634;54.110;12.138;2023-02-19T12:48:24;101974.88;;;13.33;67.03
16481;BME280;44634;54.110;12.138;2023-02-19T12:50:56;101963.72;;;13.71;64.06
16481;BME280;44634;54.110;12.138;2023-02-19T12:53:34;101976.72;;;12.43;72.89
16481;BME280;44634;54.110;12.138;2023-02-19T12:56:08;101969.94;;;13.92;60.36
16481;BME280;44634;54.110;12.138;2023-02-19T12:58:40;101969.00;;;12.85;67.66
16481;BME280;44634;54.110;12.138;2023-02-19T13:01:14;101986.41;;;13.43;62.92
16481;BME280;44634;54.110;12.138;2023-02-19T13:03:49;101971.22;;;13.77;61.51
16481;BME280;44634;54.110;12.138;2023-02-19T13:06:33;101980.44;;;13.07;59.65
16481;BME280;44634;54.110;12.138;2023-02-19T13:09:06;101980.88;;;13.99;54.36